Central, Louisiana
Current Conditions -  °F | °C
As of 3:53 AM on Friday 28 Nov 2014 (Local Time) from KBTR Reporting Station
Clear Clear  
Wind Chill: 31°   Ceiling: Unl
Heat Index: 35°   Visibility: 10mi
Dew Point: 31°   Wind: 5mph
Humidity: 85%   Direction: 40°NE
Pressure: 30.42"   Gusts: NA
Location:  30.55°N, 91.04°W
Report Text: KBTR 280953Z AUTO 04004KT 10SM CLR 02/M01 A3042 RMK AO2 SLP302 T00171006 TSNO
Loading
Personal Weather Stations






























Interactive Weather Map New forecast layout! Learn more

10-Day Weather Forecast

Advertisements
Track Severe Weather on mobile